SBOSBO AES / ENAL
Speedbird OnlineSpeedbird Online AES / ENAL

Ålesund Airport
23:11 12.1°C

Location Alesund, Norway
Latitude: 62.5625
Longitude: 6.119699954986572
Local Time 23:11 on 29 May 2024
UTC +2 hours (Europe/Oslo)
Currency £1 equals NOK 13.40
METAR ENAL 292050Z VRB03KT 9999 SCT013 12/10 Q1009
TAF TAF ENAL 291400Z 2915/2922 26015KT 9999 FEW012 SCT060 TEMPO 2915/2917 24018G28KT BECMG 2919/2921 25005KT
Weather As Of 29 May 2024 23:11
Description Scattered clouds
Wind 6 km/h from North (0°)
Cloud Cover 40%
Precipitation Rain: none, Snow: none
Sunrise 04:00
Sunset 23:05
NOTAM 1 active NOTAM
Web Airport Website | Wikipedia
Codes IATA: AES
ICAO: ENAL
Altitude 21 Meter / 69 Feet
Distance 1,281 KM / 796 Miles
from London.
Runways
RunwayLength (m)Surface
072314Asphalt
252314Asphalt
Radio
TypeDescriptionFrequency
ATISATIS128.65
TWRTWR119.85
Live ATC



Support Speedbird Online

© 2017-2024 Speedbird Online